createdAt,value
2023-05-18T00:00:14.333Z,4.30
2023-05-18T00:02:43.393Z,4.03
2023-05-18T00:05:11.646Z,4.37
2023-05-18T00:07:39.491Z,4.30
2023-05-18T00:10:08.313Z,3.70
2023-05-18T00:12:35.850Z,4.57
2023-05-18T00:15:03.542Z,4.50
2023-05-18T00:17:31.668Z,4.00
2023-05-18T00:20:00.990Z,4.60
2023-05-18T00:22:28.543Z,4.40
2023-05-18T00:24:56.072Z,4.50
2023-05-18T00:27:23.580Z,4.60
2023-05-18T00:29:51.172Z,4.10
2023-05-18T00:32:18.683Z,4.47
2023-05-18T00:34:46.181Z,4.10
2023-05-18T00:37:15.092Z,4.43
2023-05-18T00:39:42.621Z,4.23
2023-05-18T00:42:10.176Z,3.73
2023-05-18T00:44:37.672Z,4.20
2023-05-18T00:47:05.521Z,4.60
2023-05-18T00:49:33.067Z,4.40
2023-05-18T00:52:00.726Z,4.70
2023-05-18T00:54:29.643Z,4.20
2023-05-18T00:57:01.980Z,4.17
2023-05-18T00:59:29.853Z,4.40
2023-05-18T01:01:57.848Z,3.40
2023-05-18T01:04:27.756Z,4.70
2023-05-18T01:06:58.491Z,4.00
2023-05-18T01:09:26.266Z,4.23
2023-05-18T01:12:01.395Z,3.90
2023-05-18T01:14:33.809Z,4.53
2023-05-18T01:17:11.499Z,4.20
2023-05-18T01:20:08.539Z,4.60
2023-05-18T01:22:47.723Z,4.73
2023-05-18T01:25:29.779Z,4.30
2023-05-18T01:28:05.969Z,4.33
2023-05-18T01:30:34.604Z,4.53
2023-05-18T01:33:02.185Z,4.67
2023-05-18T01:35:29.916Z,4.67
2023-05-18T01:37:57.557Z,4.90
2023-05-18T01:40:28.400Z,4.43
2023-05-18T01:43:01.882Z,4.80
2023-05-18T01:45:30.812Z,4.33
2023-05-18T01:48:01.975Z,4.83
2023-05-18T01:50:37.861Z,4.50
2023-05-18T01:53:13.873Z,4.27
2023-05-18T01:55:43.092Z,4.63
2023-05-18T01:58:14.322Z,4.33
2023-05-18T02:00:41.987Z,4.80
2023-05-18T02:03:09.600Z,4.73
2023-05-18T02:05:37.225Z,4.30
2023-05-18T02:08:05.109Z,4.33
2023-05-18T02:10:32.699Z,4.93
2023-05-18T02:13:00.323Z,4.43
2023-05-18T02:15:29.654Z,4.40
2023-05-18T02:17:58.292Z,4.87
2023-05-18T02:20:27.395Z,4.37
2023-05-18T02:22:55.880Z,4.47
2023-05-18T02:25:23.602Z,4.73
2023-05-18T02:27:51.250Z,4.70
2023-05-18T02:30:19.086Z,4.87
2023-05-18T02:32:49.340Z,5.07
2023-05-18T02:35:18.010Z,5.20
2023-05-18T02:37:45.562Z,4.83
2023-05-18T02:40:14.208Z,4.60
2023-05-18T02:42:41.770Z,4.87
2023-05-18T02:45:10.153Z,5.43
2023-05-18T02:47:37.742Z,4.80
2023-05-18T02:50:07.778Z,6.10
2023-05-18T02:52:35.281Z,5.80
2023-05-18T02:55:02.789Z,5.60
2023-05-18T02:57:32.031Z,6.10
2023-05-18T02:59:59.665Z,6.20
2023-05-18T03:02:27.676Z,4.83
2023-05-18T03:04:57.351Z,6.20
2023-05-18T03:07:27.671Z,5.50
2023-05-18T03:09:55.516Z,6.20
2023-05-18T03:12:23.022Z,6.03
2023-05-18T03:14:50.632Z,5.90
2023-05-18T03:17:18.181Z,6.17
2023-05-18T03:19:45.878Z,5.70
2023-05-18T03:22:13.392Z,6.30
2023-05-18T03:24:43.191Z,7.30
2023-05-18T03:27:12.932Z,6.83
2023-05-18T03:29:40.534Z,6.50
2023-05-18T03:32:08.556Z,6.10
2023-05-18T03:34:37.128Z,6.13
2023-05-18T03:37:04.774Z,6.20
2023-05-18T03:39:32.258Z,6.10
2023-05-18T03:42:01.311Z,6.10
2023-05-18T03:44:28.862Z,5.53
2023-05-18T03:46:56.530Z,6.70
2023-05-18T03:49:24.060Z,6.30
2023-05-18T03:51:54.193Z,6.37
2023-05-18T03:54:21.821Z,6.30
2023-05-18T03:56:49.443Z,5.63
2023-05-18T03:59:18.289Z,6.23
2023-05-18T04:01:45.897Z,6.80
2023-05-18T04:04:18.082Z,6.80
2023-05-18T04:06:46.698Z,6.10
2023-05-18T04:09:17.304Z,6.47
2023-05-18T04:11:45.050Z,5.67
2023-05-18T04:14:14.110Z,5.33
2023-05-18T04:16:43.152Z,5.60
2023-05-18T04:19:10.848Z,5.17
2023-05-18T04:21:38.432Z,4.47
2023-05-18T04:24:07.169Z,3.60
2023-05-18T04:26:36.458Z,3.77
2023-05-18T04:29:04.279Z,3.20
2023-05-18T04:31:31.778Z,2.93
2023-05-18T04:34:00.668Z,2.93
2023-05-18T04:36:30.867Z,3.00
2023-05-18T04:38:59.502Z,2.72
2023-05-18T04:41:27.150Z,3.00
2023-05-18T04:43:54.741Z,2.47
2023-05-18T04:46:23.137Z,2.88
2023-05-18T04:48:50.878Z,2.90
2023-05-18T04:51:21.476Z,2.78
2023-05-18T04:53:50.113Z,2.85
2023-05-18T04:56:17.815Z,2.67
2023-05-18T04:58:46.082Z,2.85
2023-05-18T05:01:15.346Z,3.05
2023-05-18T05:03:43.270Z,2.45
2023-05-18T05:06:11.834Z,2.80
2023-05-18T05:08:40.718Z,3.00
2023-05-18T05:11:08.298Z,2.20
2023-05-18T05:13:36.494Z,2.42
2023-05-18T05:16:04.132Z,3.03
2023-05-18T05:18:31.671Z,2.85
2023-05-18T05:20:59.451Z,2.65
2023-05-18T05:23:26.980Z,2.42
2023-05-18T05:25:55.926Z,2.80
2023-05-18T05:28:23.431Z,2.53
2023-05-18T05:30:51.045Z,2.53
2023-05-18T05:33:19.063Z,2.42
2023-05-18T05:35:46.568Z,2.40
2023-05-18T05:38:14.061Z,2.08
2023-05-18T05:40:41.539Z,3.10
2023-05-18T05:43:10.439Z,2.60
2023-05-18T05:45:38.745Z,2.75
2023-05-18T05:48:06.644Z,2.75
2023-05-18T05:50:34.190Z,2.13
2023-05-18T05:53:01.936Z,2.60
2023-05-18T05:55:29.525Z,2.13
2023-05-18T05:57:57.186Z,2.72
2023-05-18T06:00:28.714Z,2.50
2023-05-18T06:02:56.652Z,1.90
2023-05-18T06:05:24.216Z,3.00
2023-05-18T06:07:51.894Z,2.63
2023-05-18T06:10:19.541Z,3.35
2023-05-18T06:12:47.081Z,3.30
2023-05-18T06:15:14.574Z,2.75
2023-05-18T06:17:44.097Z,3.50
2023-05-18T06:20:13.660Z,3.45
2023-05-18T06:22:41.326Z,3.22
2023-05-18T06:25:10.642Z,2.30
2023-05-18T06:27:38.217Z,4.18
2023-05-18T06:30:08.113Z,2.92
2023-05-18T06:32:37.408Z,3.85
2023-05-18T06:35:07.314Z,3.92
2023-05-18T06:37:34.982Z,2.97
2023-05-18T06:40:03.590Z,2.50
2023-05-18T06:42:32.703Z,2.30
2023-05-18T06:45:00.452Z,2.20
2023-05-18T06:47:27.987Z,2.20
2023-05-18T06:49:55.514Z,2.47
2023-05-18T06:52:26.340Z,2.20
2023-05-18T06:54:54.595Z,2.05
2023-05-18T06:57:22.152Z,2.40
2023-05-18T06:59:53.528Z,2.15
2023-05-18T07:02:21.434Z,2.17
2023-05-18T07:04:49.667Z,2.42
2023-05-18T07:07:17.677Z,2.50
2023-05-18T07:09:49.604Z,2.60
2023-05-18T07:12:17.529Z,3.03
2023-05-18T07:14:45.025Z,2.78
2023-05-18T07:17:12.531Z,2.58
2023-05-18T07:19:40.038Z,3.03
2023-05-18T07:22:07.646Z,2.20
2023-05-18T07:24:35.334Z,2.80
2023-05-18T07:27:04.498Z,2.78
2023-05-18T07:29:32.101Z,2.20
2023-05-18T07:31:59.845Z,2.53
2023-05-18T07:34:27.744Z,2.40
2023-05-18T07:36:55.294Z,2.30
2023-05-18T07:39:28.495Z,2.22
2023-05-18T07:41:56.115Z,2.60
2023-05-18T07:44:25.546Z,2.38
2023-05-18T07:46:53.186Z,2.17
2023-05-18T07:49:23.163Z,2.30
2023-05-18T07:51:51.137Z,2.70
2023-05-18T07:54:19.169Z,2.30
2023-05-18T07:56:46.775Z,2.20
2023-05-18T07:59:14.525Z,2.33
2023-05-18T08:01:45.015Z,2.20
2023-05-18T08:04:12.848Z,2.30
2023-05-18T08:06:40.646Z,2.22
2023-05-18T08:09:08.156Z,2.25
2023-05-18T08:11:35.669Z,2.17
2023-05-18T08:14:03.136Z,2.58
2023-05-18T08:16:30.782Z,2.70
2023-05-18T08:18:59.629Z,2.15
2023-05-18T08:21:28.508Z,2.50
2023-05-18T08:23:56.209Z,2.10
2023-05-18T08:26:24.488Z,2.58
2023-05-18T08:28:51.950Z,2.03
2023-05-18T08:31:19.614Z,2.35
2023-05-18T08:33:47.122Z,2.20
2023-05-18T08:36:16.936Z,2.72
2023-05-18T08:38:44.544Z,2.40
2023-05-18T08:41:20.944Z,2.25
2023-05-18T08:43:52.188Z,2.28
2023-05-18T08:46:22.732Z,2.45
2023-05-18T08:48:53.502Z,2.25
2023-05-18T08:51:23.395Z,2.33
2023-05-18T08:53:53.795Z,2.70
2023-05-18T08:56:24.221Z,3.00
2023-05-18T08:58:53.351Z,3.00
2023-05-18T09:01:22.939Z,2.55
2023-05-18T09:03:51.335Z,2.33
2023-05-18T09:06:19.688Z,2.10
2023-05-18T09:08:49.565Z,2.25
2023-05-18T09:11:18.239Z,2.22
2023-05-18T09:13:45.909Z,2.30
2023-05-18T09:16:13.471Z,1.95
2023-05-18T09:18:41.126Z,2.20
2023-05-18T09:21:08.807Z,2.10
2023-05-18T09:23:36.512Z,2.80
2023-05-18T09:26:05.927Z,2.42
2023-05-18T09:28:36.547Z,2.22
2023-05-18T09:31:04.742Z,2.20
2023-05-18T09:33:35.208Z,2.40
2023-05-18T09:36:03.179Z,2.58
2023-05-18T09:38:30.696Z,2.47
2023-05-18T09:40:58.181Z,2.17
2023-05-18T09:43:27.062Z,2.30
2023-05-18T09:45:54.550Z,2.50
2023-05-18T09:48:25.190Z,2.30
2023-05-18T09:50:53.073Z,2.25
2023-05-18T09:53:20.771Z,2.72
2023-05-18T09:55:50.804Z,2.65
2023-05-18T09:58:18.426Z,2.03
2023-05-18T10:00:51.730Z,2.25
2023-05-18T10:03:21.579Z,2.63
2023-05-18T10:05:49.291Z,2.35
2023-05-18T10:08:17.539Z,2.42
2023-05-18T10:10:46.402Z,2.10
2023-05-18T10:13:19.951Z,2.42
2023-05-18T10:15:50.855Z,2.20
2023-05-18T10:18:23.531Z,1.92
2023-05-18T10:20:52.342Z,2.50
2023-05-18T10:23:20.875Z,1.90
2023-05-18T10:25:50.548Z,2.20
2023-05-18T10:28:24.414Z,2.38
2023-05-18T10:30:54.565Z,2.40
2023-05-18T10:33:28.985Z,2.30
2023-05-18T10:35:57.732Z,2.55
2023-05-18T10:38:26.718Z,2.22
2023-05-18T10:40:56.464Z,2.67
2023-05-18T10:43:27.337Z,2.10
2023-05-18T10:45:58.056Z,2.22
2023-05-18T10:48:26.957Z,2.30
2023-05-18T10:50:55.839Z,2.28
2023-05-18T10:53:26.642Z,2.35
2023-05-18T10:55:55.438Z,1.58
2023-05-18T10:58:26.404Z,2.63
2023-05-18T11:00:57.743Z,2.40
2023-05-18T11:03:26.990Z,2.08
2023-05-18T11:06:06.604Z,2.20
2023-05-18T11:08:34.641Z,2.80
2023-05-18T11:11:04.097Z,2.22
2023-05-18T11:13:33.111Z,2.33
2023-05-18T11:16:06.753Z,2.38
2023-05-18T11:18:43.230Z,2.10
2023-05-18T11:21:51.520Z,2.33
2023-05-18T11:24:21.663Z,2.33
2023-05-18T11:26:50.593Z,2.15
2023-05-18T11:29:19.865Z,2.40
2023-05-18T11:31:50.260Z,2.53
2023-05-18T11:34:39.686Z,1.70
2023-05-18T11:37:10.121Z,2.22
2023-05-18T11:39:47.989Z,2.28
2023-05-18T11:42:20.326Z,2.30
2023-05-18T11:44:53.246Z,2.67
2023-05-18T11:47:22.260Z,1.92
2023-05-18T11:49:53.088Z,2.53
2023-05-18T11:52:22.168Z,2.40
2023-05-18T11:54:52.848Z,2.70
2023-05-18T11:57:21.499Z,2.63
2023-05-18T11:59:55.019Z,2.55
2023-05-18T12:02:26.732Z,2.42
2023-05-18T12:04:55.379Z,2.42
2023-05-18T12:07:25.089Z,2.92
2023-05-18T12:09:52.665Z,2.45
2023-05-18T12:12:20.943Z,2.10
2023-05-18T12:14:55.414Z,2.33
2023-05-18T12:17:24.674Z,2.33
2023-05-18T12:19:52.246Z,2.40
2023-05-18T12:22:19.951Z,2.90
2023-05-18T12:24:47.482Z,2.40
2023-05-18T12:27:14.998Z,2.30
2023-05-18T12:29:43.504Z,2.40
2023-05-18T12:32:12.418Z,2.20
2023-05-18T12:34:41.378Z,2.13
2023-05-18T12:37:08.899Z,2.85
2023-05-18T12:39:36.840Z,2.42
2023-05-18T12:42:15.987Z,2.80
2023-05-18T12:44:45.299Z,2.22
2023-05-18T12:47:13.894Z,2.10
2023-05-18T12:49:49.183Z,2.35
2023-05-18T12:52:17.661Z,2.15
2023-05-18T12:54:55.253Z,2.17
2023-05-18T12:57:26.505Z,2.75
2023-05-18T12:59:55.031Z,2.40
2023-05-18T13:02:28.402Z,2.33
2023-05-18T13:05:08.680Z,2.22
2023-05-18T13:07:37.405Z,2.00
2023-05-18T13:10:10.383Z,2.40
2023-05-18T13:12:49.090Z,2.42
2023-05-18T13:15:18.357Z,2.85
2023-05-18T13:17:55.699Z,1.83
2023-05-18T13:20:25.101Z,2.38
2023-05-18T13:22:52.639Z,2.20
2023-05-18T13:25:20.522Z,2.10
2023-05-18T13:27:49.536Z,1.90
2023-05-18T13:30:18.127Z,1.83
2023-05-18T13:32:45.783Z,2.42
2023-05-18T13:35:13.637Z,1.92
2023-05-18T13:37:42.494Z,2.10
2023-05-18T13:40:11.291Z,2.20
2023-05-18T13:42:38.854Z,2.25
2023-05-18T13:45:07.463Z,2.40
2023-05-18T13:47:35.024Z,2.33
2023-05-18T13:50:02.569Z,1.92
2023-05-18T13:52:30.046Z,2.17
2023-05-18T13:54:58.851Z,2.40
2023-05-18T13:57:27.113Z,2.17
2023-05-18T13:59:54.771Z,2.50
2023-05-18T14:02:22.301Z,2.00
2023-05-18T14:04:49.798Z,2.20
2023-05-18T14:07:17.340Z,2.25
2023-05-18T14:09:44.907Z,2.20
2023-05-18T14:12:13.827Z,2.08
2023-05-18T14:14:43.120Z,1.92
2023-05-18T14:17:11.540Z,2.30
2023-05-18T14:19:39.226Z,2.30
2023-05-18T14:22:07.063Z,2.38
2023-05-18T14:24:34.548Z,2.13
2023-05-18T14:27:02.045Z,2.40
2023-05-18T14:29:31.016Z,2.40
2023-05-18T14:31:58.482Z,2.30
2023-05-18T14:34:26.890Z,2.97
2023-05-18T14:36:54.750Z,2.15
2023-05-18T14:39:22.225Z,2.40
2023-05-18T14:41:49.697Z,2.30
2023-05-18T14:44:17.210Z,2.53
2023-05-18T14:46:46.330Z,1.80
2023-05-18T14:49:13.921Z,2.10
2023-05-18T14:51:41.464Z,2.33
2023-05-18T14:54:08.971Z,2.10
2023-05-18T14:56:36.580Z,2.65
2023-05-18T14:59:04.092Z,2.78
2023-05-18T15:01:31.681Z,2.10
2023-05-18T15:04:00.687Z,2.35
2023-05-18T15:06:29.346Z,2.45
2023-05-18T15:08:56.847Z,2.30
2023-05-18T15:11:24.397Z,2.08
2023-05-18T15:13:51.968Z,2.53
2023-05-18T15:16:20.367Z,2.50
2023-05-18T15:18:47.948Z,2.10
2023-05-18T15:21:16.776Z,2.63
2023-05-18T15:23:44.254Z,2.47
2023-05-18T15:26:11.800Z,2.22
2023-05-18T15:28:40.872Z,2.15
2023-05-18T15:31:09.150Z,2.08
2023-05-18T15:33:41.838Z,2.25
2023-05-18T15:36:09.814Z,2.35
2023-05-18T15:38:38.658Z,2.72
2023-05-18T15:41:06.350Z,3.80
2023-05-18T15:43:36.388Z,2.55
2023-05-18T15:46:03.942Z,2.67
2023-05-18T15:48:31.506Z,2.50
2023-05-18T15:50:59.079Z,2.65
2023-05-18T15:53:26.566Z,2.17
2023-05-18T15:55:58.568Z,2.40
2023-05-18T15:58:26.931Z,2.65
2023-05-18T16:00:54.589Z,2.20
2023-05-18T16:03:22.327Z,2.20
2023-05-18T16:05:50.203Z,2.30
2023-05-18T16:08:17.724Z,2.42
2023-05-18T16:10:45.275Z,2.42
2023-05-18T16:13:14.743Z,2.40
2023-05-18T16:15:42.313Z,2.25
2023-05-18T16:18:09.850Z,2.38
2023-05-18T16:20:37.626Z,2.92
2023-05-18T16:23:05.216Z,2.30
2023-05-18T16:25:33.031Z,2.75
2023-05-18T16:28:00.556Z,2.78
2023-05-18T16:30:29.644Z,2.40
2023-05-18T16:32:57.454Z,2.33
2023-05-18T16:35:24.998Z,2.67
2023-05-18T16:37:52.506Z,2.63
2023-05-18T16:40:20.034Z,2.58
2023-05-18T16:42:48.835Z,2.40
2023-05-18T16:45:16.451Z,2.50
2023-05-18T16:47:45.366Z,2.38
2023-05-18T16:50:12.895Z,2.30
2023-05-18T16:52:40.392Z,2.13
2023-05-18T16:55:08.349Z,2.58
2023-05-18T16:57:36.737Z,2.25
2023-05-18T17:00:08.624Z,2.63
2023-05-18T17:02:38.491Z,2.75
2023-05-18T17:05:08.393Z,2.50
2023-05-18T17:07:36.215Z,2.53
2023-05-18T17:10:04.070Z,2.72
2023-05-18T17:12:31.708Z,2.65
2023-05-18T17:14:59.218Z,2.67
2023-05-18T17:17:26.805Z,2.70
2023-05-18T17:19:54.432Z,2.50
2023-05-18T17:22:23.256Z,2.70
2023-05-18T17:24:50.774Z,2.80
2023-05-18T17:27:18.307Z,2.40
2023-05-18T17:29:45.800Z,2.20
2023-05-18T17:32:13.321Z,2.88
2023-05-18T17:34:41.007Z,3.13
2023-05-18T17:37:08.568Z,2.63
2023-05-18T17:39:37.410Z,2.88
2023-05-18T17:42:05.407Z,2.58
2023-05-18T17:44:32.910Z,2.95
2023-05-18T17:47:01.435Z,2.60
2023-05-18T17:49:28.991Z,2.60
2023-05-18T17:51:57.380Z,3.67
2023-05-18T17:54:25.879Z,2.85
2023-05-18T17:56:56.524Z,2.90
2023-05-18T17:59:24.091Z,3.22
2023-05-18T18:01:51.592Z,3.47
2023-05-18T18:04:19.186Z,3.03
2023-05-18T18:06:46.871Z,3.47
2023-05-18T18:09:14.386Z,3.08
2023-05-18T18:11:41.882Z,3.25
2023-05-18T18:14:11.472Z,3.50
2023-05-18T18:16:39.016Z,2.78
2023-05-18T18:19:06.594Z,3.10
2023-05-18T18:21:34.101Z,2.95
2023-05-18T18:24:02.697Z,2.97
2023-05-18T18:26:30.697Z,3.50
2023-05-18T18:28:58.198Z,3.25
2023-05-18T18:31:27.095Z,2.90
2023-05-18T18:33:54.682Z,3.60
2023-05-18T18:36:23.715Z,3.65
2023-05-18T18:38:52.430Z,3.55
2023-05-18T18:41:20.039Z,3.92
2023-05-18T18:43:47.526Z,3.10
2023-05-18T18:46:15.116Z,3.58
2023-05-18T18:48:43.957Z,3.20
2023-05-18T18:51:11.481Z,3.28
2023-05-18T18:53:38.963Z,3.55
2023-05-18T18:56:06.591Z,3.45
2023-05-18T18:58:34.119Z,3.97
2023-05-18T19:01:01.626Z,4.40
2023-05-18T19:03:29.256Z,3.17
2023-05-18T19:05:58.102Z,3.22
2023-05-18T19:08:25.760Z,3.42
2023-05-18T19:10:53.282Z,3.17
2023-05-18T19:13:21.003Z,3.50
2023-05-18T19:15:49.214Z,3.10
2023-05-18T19:18:16.810Z,3.10
2023-05-18T19:20:44.305Z,3.55
2023-05-18T19:23:13.133Z,2.70
2023-05-18T19:25:40.736Z,3.35
2023-05-18T19:28:08.268Z,3.00
2023-05-18T19:30:35.853Z,2.70
2023-05-18T19:33:03.407Z,3.15
2023-05-18T19:35:31.295Z,2.78
2023-05-18T19:37:59.728Z,3.30
2023-05-18T19:40:28.911Z,2.90
2023-05-18T19:42:59.471Z,2.90
2023-05-18T19:45:27.237Z,2.58
2023-05-18T19:47:54.856Z,3.03
2023-05-18T19:50:22.524Z,2.80
2023-05-18T19:52:50.108Z,2.67
2023-05-18T19:55:18.370Z,3.35
2023-05-18T19:57:47.213Z,2.97
2023-05-18T20:00:15.227Z,3.15
2023-05-18T20:02:43.039Z,3.08
2023-05-18T20:05:12.657Z,3.08
2023-05-18T20:07:40.990Z,2.92
2023-05-18T20:10:08.515Z,3.20
2023-05-18T20:12:36.102Z,3.22
2023-05-18T20:15:05.740Z,2.83
2023-05-18T20:17:33.265Z,2.88
2023-05-18T20:20:00.780Z,2.92
2023-05-18T20:22:28.353Z,3.25
2023-05-18T20:24:55.924Z,2.92
2023-05-18T20:27:23.486Z,3.22
2023-05-18T20:29:51.090Z,7.90
2023-05-18T20:32:20.008Z,2.70
2023-05-18T20:34:47.611Z,3.10
2023-05-18T20:37:15.118Z,2.78
2023-05-18T20:39:50.348Z,3.00
2023-05-18T20:42:21.713Z,2.45
2023-05-18T20:44:50.826Z,2.72
2023-05-18T20:47:20.331Z,2.60
2023-05-18T20:49:48.530Z,2.28
2023-05-18T20:52:16.597Z,3.00
2023-05-18T20:54:44.472Z,2.63
2023-05-18T20:57:12.066Z,3.40
2023-05-18T20:59:39.644Z,2.70
2023-05-18T21:02:07.597Z,2.92
2023-05-18T21:04:36.474Z,2.70
2023-05-18T21:07:05.493Z,2.80
2023-05-18T21:09:34.131Z,2.97
2023-05-18T21:12:02.595Z,2.55
2023-05-18T21:14:30.164Z,3.40
2023-05-18T21:16:57.711Z,2.95
2023-05-18T21:19:25.590Z,3.20
2023-05-18T21:21:54.618Z,2.65
2023-05-18T21:24:22.149Z,3.17
2023-05-18T21:26:49.682Z,2.65
2023-05-18T21:29:17.171Z,3.22
2023-05-18T21:31:44.751Z,3.28
2023-05-18T21:34:12.377Z,3.20
2023-05-18T21:36:40.216Z,2.80
2023-05-18T21:39:09.572Z,2.97
2023-05-18T21:41:40.178Z,2.60
2023-05-18T21:44:07.822Z,3.22
2023-05-18T21:46:35.960Z,3.45
2023-05-18T21:49:04.628Z,2.80
2023-05-18T21:51:32.332Z,2.50
2023-05-18T21:54:01.215Z,2.97
2023-05-18T21:56:30.268Z,2.88
2023-05-18T21:58:57.790Z,3.13
2023-05-18T22:01:25.354Z,3.13
2023-05-18T22:03:52.911Z,2.90
2023-05-18T22:06:20.862Z,3.28
2023-05-18T22:08:48.752Z,3.35
2023-05-18T22:11:16.280Z,3.28
2023-05-18T22:13:45.736Z,3.30
2023-05-18T22:16:13.258Z,3.03
2023-05-18T22:18:40.781Z,3.33
2023-05-18T22:21:08.436Z,3.08
2023-05-18T22:23:35.924Z,3.25
2023-05-18T22:26:03.442Z,3.65
2023-05-18T22:28:30.954Z,3.50
2023-05-18T22:30:59.794Z,3.70
2023-05-18T22:33:27.482Z,3.33
2023-05-18T22:35:55.000Z,3.28
2023-05-18T22:38:23.053Z,3.10
2023-05-18T22:40:53.875Z,3.22
2023-05-18T22:43:21.844Z,3.53
2023-05-18T22:45:49.633Z,3.67
2023-05-18T22:48:18.512Z,3.05
2023-05-18T22:50:46.344Z,3.22
2023-05-18T22:53:13.837Z,3.30
2023-05-18T22:55:41.453Z,3.83
2023-05-18T22:58:09.054Z,3.75
2023-05-18T23:00:36.624Z,3.30
2023-05-18T23:03:04.394Z,3.30
2023-05-18T23:05:33.478Z,3.33
2023-05-18T23:08:02.680Z,3.10
2023-05-18T23:10:30.631Z,2.92
2023-05-18T23:12:58.350Z,3.72
2023-05-18T23:15:25.919Z,3.63
2023-05-18T23:17:54.985Z,3.35
2023-05-18T23:20:23.703Z,3.08
2023-05-18T23:22:52.656Z,3.70
2023-05-18T23:25:21.047Z,3.58
2023-05-18T23:27:48.562Z,3.35
2023-05-18T23:30:16.130Z,3.58
2023-05-18T23:32:45.425Z,3.13
2023-05-18T23:35:14.294Z,3.30
2023-05-18T23:37:43.031Z,3.20
2023-05-18T23:40:13.621Z,3.30
2023-05-18T23:42:41.659Z,3.13
2023-05-18T23:45:10.843Z,3.55
2023-05-18T23:47:38.903Z,3.42
2023-05-18T23:50:08.144Z,3.45
2023-05-18T23:52:37.120Z,3.50
2023-05-18T23:55:05.981Z,4.07
2023-05-18T23:57:35.572Z,3.50
